Ufs Tw-Ems, Germany

6:51 AM CEST on September 04, 2015 (GMT +0200)
Awg-1 Sea | | Change Station
CLOSE
Current Station
Airport
Location: Awg-1 Sea,
Elevation: 85 ft
Nearby Weather Stations

Elev 85 ft 53.49 °N, 5.94 °E | Updated 26 minutes ago

Light Rain
Light Rain
57 °F
Feels Like 57 °F
N
25
Wind Variable Wind from Variable

Today
High -- | Low -- °F
--% Chance of Precip.
Yesterday
High -- | Low -- °F
Precip. -- in
6:47 AM 8:19 PM
Waning Gibbous, 63% visible
Pressure 29.74 in
Visibility 6.2 miles
Clouds Few 400 ft
Scattered Clouds 900 ft
Mostly Cloudy 1400 ft
Dew Point 55 °F
Humidity 94%
Rainfall 0.00 in
Snow Depth Not available.
UV 0 out of 12
Pollen Not available.
Air Quality Not available.
Flu Activity Not available.
METAR EHMA 040425Z AUTO VRB22KT 9999 -RA FEW004/// SCT009/// BKN014/// 14/13 Q1007
Pressure 29.74 in
Visibility 6.2 miles
Clouds Few 400 ft
Scattered Clouds 900 ft
Mostly Cloudy 1400 ft
Dew Point 55 °F
Humidity 94%
Rainfall 0.00 in
Snow Depth Not available.
UV 0 out of 12
Pollen Not available.
Air Quality Not available.
Flu Activity Not available.
METAR EHMA 040425Z AUTO VRB22KT 9999 -RA FEW004/// SCT009/// BKN014/// 14/13 Q1007

10-Day Weather Forecast

×

Almanac

Astronomy

Sep. 04, 2015 Rise Set
Actual Time
Civil Twilight
Nautical Twilight
Astronomical Twilight
Moon
Length of Visible Light
Length of Day
Tomorrow will be .
, % of the Moon is Illuminated

Today's Extremes

Country Highs Country Lows

Community

WunderPhotos

Upload Photos

1,852,129 photos uploaded!

WunderBlogs® & News

Nearby

Air Quality

  Air Quality AQ Index Pollutant
Not available.

Snow Depth

Station Depth Elevation

Earthquake Activity

City Distance Mag. Time & Date
Minimum magnitude displayed is 2.5.

Coastal Water Temperatures

Place Temperature

Stations

Nearby Weather Stations

Station Location Temp. Windchill Dew Point Humidity Wind Precip. Elev Updated Type